createdAt,value
2023-03-17T00:43:31.323Z,59.03
2023-03-17T00:44:31.317Z,58.94
2023-03-17T00:45:31.338Z,58.92
2023-03-17T00:46:31.371Z,58.74
2023-03-17T00:47:30.965Z,58.65
2023-03-17T00:48:30.842Z,58.70
2023-03-17T00:49:30.966Z,58.48
2023-03-17T00:50:31.240Z,58.49
2023-03-17T00:51:30.852Z,58.91
2023-03-17T00:52:30.792Z,59.04
2023-03-17T00:53:30.864Z,59.14
2023-03-17T00:54:30.831Z,58.90
2023-03-17T00:55:30.810Z,59.21
2023-03-17T00:56:30.832Z,59.33
2023-03-17T00:57:30.861Z,59.32
2023-03-17T00:58:30.777Z,59.40
2023-03-17T00:59:30.716Z,59.18
2023-03-17T01:00:31.069Z,59.27
2023-03-17T01:01:30.688Z,59.48
2023-03-17T01:02:30.746Z,59.61
2023-03-17T01:03:30.718Z,59.67
2023-03-17T01:04:30.667Z,59.74
2023-03-17T01:05:30.700Z,59.50
2023-03-17T01:06:30.731Z,59.33
2023-03-17T01:07:30.701Z,59.44
2023-03-17T01:08:30.702Z,59.19
2023-03-17T01:09:30.622Z,59.07
2023-03-17T01:10:31.028Z,58.97
2023-03-17T01:11:30.637Z,59.16
2023-03-17T01:12:30.592Z,58.64
2023-03-17T01:13:30.596Z,58.64
2023-03-17T01:14:30.600Z,58.52
2023-03-17T01:15:30.596Z,58.61
2023-03-17T01:16:30.645Z,58.81
2023-03-17T01:17:30.519Z,58.59
2023-03-17T01:18:30.559Z,58.56
2023-03-17T01:19:30.494Z,58.46
2023-03-17T01:20:30.885Z,58.38
2023-03-17T01:21:30.513Z,58.01
2023-03-17T01:22:30.522Z,57.89
2023-03-17T01:23:30.470Z,57.81
2023-03-17T01:24:30.494Z,57.56
2023-03-17T01:25:30.425Z,57.25
2023-03-17T01:26:30.449Z,57.11
2023-03-17T01:27:30.595Z,57.13
2023-03-17T01:28:30.406Z,57.05
2023-03-17T01:29:30.464Z,57.01
2023-03-17T01:30:30.564Z,56.86
2023-03-17T01:31:30.411Z,56.73
2023-03-17T01:32:30.470Z,56.67
2023-03-17T01:33:30.340Z,56.64
2023-03-17T01:34:30.366Z,56.50
2023-03-17T01:35:30.598Z,56.36
2023-03-17T01:36:30.398Z,56.36
2023-03-17T01:37:30.307Z,56.29
2023-03-17T01:38:30.328Z,56.26
2023-03-17T01:39:30.300Z,56.10
2023-03-17T01:40:30.610Z,56.21
2023-03-17T01:41:30.287Z,56.14
2023-03-17T01:42:30.259Z,55.99
2023-03-17T01:43:30.312Z,56.06
2023-03-17T01:44:30.251Z,55.98
2023-03-17T01:45:30.287Z,55.87
2023-03-17T01:46:30.251Z,55.72
2023-03-17T01:47:30.325Z,55.67
2023-03-17T01:48:30.180Z,55.63
2023-03-17T01:49:30.190Z,55.64
2023-03-17T01:50:30.478Z,55.71
2023-03-17T01:51:30.162Z,55.75
2023-03-17T01:52:30.198Z,55.66
2023-03-17T01:53:30.144Z,55.54
2023-03-17T01:54:30.137Z,55.46
2023-03-17T01:55:30.102Z,55.43
2023-03-17T01:56:30.088Z,55.35
2023-03-17T01:57:30.156Z,55.40
2023-03-17T01:58:30.087Z,55.44
2023-03-17T01:59:30.101Z,55.50
2023-03-17T02:00:30.291Z,55.47
2023-03-17T02:01:30.077Z,55.43
2023-03-17T02:02:30.073Z,55.35
2023-03-17T02:03:30.031Z,55.48
2023-03-17T02:04:30.072Z,55.41
2023-03-17T02:05:30.065Z,55.47
2023-03-17T02:06:30.014Z,55.52
2023-03-17T02:07:30.038Z,55.58
2023-03-17T02:08:29.997Z,55.60
2023-03-17T02:09:30.000Z,55.50
2023-03-17T02:10:30.362Z,55.53
2023-03-17T02:11:29.990Z,55.52
2023-03-17T02:12:29.961Z,55.35
2023-03-17T02:13:29.971Z,55.24
2023-03-17T02:14:30.056Z,55.03
2023-03-17T02:15:29.942Z,55.14
2023-03-17T02:16:29.964Z,55.27
2023-03-17T02:17:29.913Z,55.27
2023-03-17T02:18:29.899Z,55.34
2023-03-17T02:19:29.997Z,55.47
2023-03-17T02:20:30.034Z,55.43
2023-03-17T02:21:29.918Z,55.48
2023-03-17T02:22:29.910Z,55.63
2023-03-17T02:23:29.874Z,55.51
2023-03-17T02:24:29.776Z,55.42
2023-03-17T02:25:29.825Z,55.45
2023-03-17T02:26:29.777Z,55.33
2023-03-17T02:27:29.819Z,55.14
2023-03-17T02:28:29.776Z,55.16
2023-03-17T02:29:29.769Z,55.20
2023-03-17T02:30:30.072Z,55.03
2023-03-17T02:31:29.717Z,54.95
2023-03-17T02:32:29.788Z,54.83
2023-03-17T02:33:29.741Z,54.78
2023-03-17T02:34:29.701Z,54.81
2023-03-17T02:35:29.750Z,54.63
2023-03-17T02:36:29.682Z,54.51
2023-03-17T02:37:29.706Z,54.67
2023-03-17T02:38:29.643Z,54.68
2023-03-17T02:39:29.637Z,54.96
2023-03-17T02:40:30.010Z,54.99
2023-03-17T02:41:29.622Z,55.03
2023-03-17T02:42:29.730Z,55.16
2023-03-17T02:43:29.612Z,55.18
2023-03-17T02:44:29.604Z,54.98
2023-03-17T02:45:29.757Z,54.96
2023-03-17T02:46:29.602Z,54.82
2023-03-17T02:47:29.554Z,54.77
2023-03-17T02:48:29.559Z,54.91
2023-03-17T02:49:29.568Z,55.05
2023-03-17T02:50:29.816Z,55.09
2023-03-17T02:51:29.498Z,55.09
2023-03-17T02:52:29.497Z,55.04
2023-03-17T02:53:29.532Z,55.07
2023-03-17T02:54:29.604Z,55.15
2023-03-17T02:55:29.482Z,55.13
2023-03-17T02:56:29.481Z,55.22
2023-03-17T02:57:29.493Z,54.89
2023-03-17T02:58:29.429Z,54.81
2023-03-17T02:59:29.489Z,54.92
2023-03-17T03:00:29.723Z,55.02
2023-03-17T03:01:29.510Z,55.13
2023-03-17T03:02:29.500Z,55.32
2023-03-17T03:03:29.365Z,55.43
2023-03-17T03:04:29.530Z,55.51
2023-03-17T03:05:29.417Z,55.59
2023-03-17T03:06:29.378Z,55.42
2023-03-17T03:07:29.360Z,55.31
2023-03-17T03:08:29.421Z,55.41
2023-03-17T03:09:29.371Z,55.59
2023-03-17T03:10:29.565Z,55.40
2023-03-17T03:11:29.397Z,54.92
2023-03-17T03:12:29.305Z,55.03
2023-03-17T03:13:29.282Z,55.40
2023-03-17T03:14:29.340Z,55.52
2023-03-17T03:15:29.346Z,55.61
2023-03-17T03:16:29.321Z,55.69
2023-03-17T03:17:29.282Z,55.76
2023-03-17T03:18:29.224Z,55.76
2023-03-17T03:19:29.264Z,55.41
2023-03-17T03:20:29.480Z,55.69
2023-03-17T03:21:29.212Z,56.00
2023-03-17T03:22:29.203Z,56.09
2023-03-17T03:23:29.217Z,56.16
2023-03-17T03:24:29.193Z,56.21
2023-03-17T03:25:29.201Z,56.06
2023-03-17T03:26:29.230Z,55.49
2023-03-17T03:27:29.259Z,55.42
2023-03-17T03:28:29.271Z,55.57
2023-03-17T03:29:29.153Z,55.81
2023-03-17T03:30:29.388Z,55.95
2023-03-17T03:31:29.185Z,56.08
2023-03-17T03:32:29.164Z,56.20
2023-03-17T03:33:29.055Z,56.27
2023-03-17T03:34:29.108Z,56.30
2023-03-17T03:35:29.168Z,56.26
2023-03-17T03:36:29.122Z,56.23
2023-03-17T03:37:29.042Z,56.02
2023-03-17T03:38:29.008Z,56.34
2023-03-17T03:39:29.023Z,56.08
2023-03-17T03:40:29.342Z,55.77
2023-03-17T03:41:29.083Z,55.77
2023-03-17T03:42:28.990Z,55.83
2023-03-17T03:43:29.204Z,55.78
2023-03-17T03:44:28.979Z,55.49
2023-03-17T03:45:29.038Z,55.41
2023-03-17T03:46:29.068Z,55.42
2023-03-17T03:47:28.992Z,55.56
2023-03-17T03:48:28.981Z,55.80
2023-03-17T03:49:28.948Z,55.60
2023-03-17T03:50:29.323Z,55.76
2023-03-17T03:51:28.915Z,55.91
2023-03-17T03:52:28.863Z,55.89
2023-03-17T03:53:28.975Z,55.92
2023-03-17T03:54:28.816Z,56.09
2023-03-17T03:55:28.822Z,56.17
2023-03-17T03:56:28.863Z,56.08
2023-03-17T03:57:28.820Z,56.02
2023-03-17T03:58:28.806Z,56.07
2023-03-17T03:59:29.047Z,56.11
2023-03-17T04:00:29.227Z,56.22
2023-03-17T04:01:28.773Z,56.38
2023-03-17T04:02:28.811Z,56.49
2023-03-17T04:03:28.845Z,56.53
2023-03-17T04:04:28.804Z,56.53
2023-03-17T04:05:28.732Z,56.61
2023-03-17T04:06:28.760Z,56.61
2023-03-17T04:07:28.714Z,56.70
2023-03-17T04:08:28.730Z,56.87
2023-03-17T04:09:28.679Z,56.97
2023-03-17T04:10:28.996Z,57.08
2023-03-17T04:11:28.660Z,57.19
2023-03-17T04:12:28.693Z,57.28
2023-03-17T04:13:28.695Z,57.37
2023-03-17T04:14:28.624Z,57.43
2023-03-17T04:15:28.625Z,57.52
2023-03-17T04:16:28.655Z,57.50
2023-03-17T04:17:28.623Z,57.61
2023-03-17T04:18:28.583Z,57.64
2023-03-17T04:19:28.576Z,57.65
2023-03-17T04:20:29.049Z,57.68
2023-03-17T04:21:28.553Z,57.76
2023-03-17T04:22:28.529Z,57.84
2023-03-17T04:23:28.596Z,57.91
2023-03-17T04:24:28.556Z,57.95
2023-03-17T04:25:28.499Z,58.00
2023-03-17T04:26:28.586Z,58.09
2023-03-17T04:27:28.498Z,58.17
2023-03-17T04:28:28.482Z,58.18
2023-03-17T04:29:28.517Z,58.25
2023-03-17T04:30:29.019Z,58.35
2023-03-17T04:31:28.428Z,58.44
2023-03-17T04:32:28.519Z,58.52
2023-03-17T04:33:28.478Z,58.51
2023-03-17T04:34:29.258Z,58.51
2023-03-17T04:35:28.469Z,58.52
2023-03-17T04:36:28.407Z,58.51
2023-03-17T04:37:28.369Z,58.51
2023-03-17T04:38:28.364Z,58.55
2023-03-17T04:39:28.358Z,58.60
2023-03-17T04:40:28.589Z,58.60
2023-03-17T04:41:28.383Z,58.58
2023-03-17T04:42:28.364Z,58.62
2023-03-17T04:43:28.316Z,58.63
2023-03-17T04:44:28.293Z,58.67
2023-03-17T04:45:28.294Z,58.75
2023-03-17T04:46:28.288Z,58.76
2023-03-17T04:47:28.260Z,58.74
2023-03-17T05:18:40.538Z,61.33
2023-03-17T05:27:43.573Z,61.40
2023-03-17T05:28:43.380Z,61.35
2023-03-17T05:29:42.952Z,61.52
2023-03-17T05:30:42.993Z,61.41
2023-03-17T05:31:42.936Z,61.35
2023-03-17T05:32:43.045Z,61.36
2023-03-17T05:33:42.898Z,61.41
2023-03-17T05:34:42.856Z,61.45
2023-03-17T05:35:42.880Z,61.43
2023-03-17T05:36:42.962Z,61.40
2023-03-17T05:37:42.889Z,61.35
2023-03-17T05:38:42.877Z,61.32
2023-03-17T05:39:42.818Z,61.31
2023-03-17T05:40:42.832Z,61.28
2023-03-17T05:41:42.819Z,61.30
2023-03-17T05:42:42.784Z,61.30
2023-03-17T05:43:42.803Z,61.28
2023-03-17T05:44:42.749Z,61.29
2023-03-17T05:45:42.864Z,61.27
2023-03-17T05:46:42.996Z,61.26
2023-03-17T05:47:42.758Z,61.28
2023-03-17T05:48:43.106Z,61.29
2023-03-17T05:49:42.726Z,61.30
2023-03-17T05:50:42.700Z,61.25
2023-03-17T05:51:42.667Z,61.28
2023-03-17T05:52:42.752Z,61.31
2023-03-17T05:53:42.703Z,61.36
2023-03-17T05:54:42.670Z,61.39
2023-03-17T05:55:42.682Z,61.37
2023-03-17T05:56:42.645Z,61.34
2023-03-17T05:57:42.639Z,61.35
2023-03-17T05:58:42.680Z,61.32
2023-03-17T05:59:42.628Z,61.27
2023-03-17T06:00:42.618Z,61.22
2023-03-17T06:01:42.578Z,61.13
2023-03-17T06:02:42.632Z,61.08
2023-03-17T06:03:42.636Z,61.01
2023-03-17T06:04:42.601Z,60.92
2023-03-17T06:05:42.548Z,60.85
2023-03-17T06:06:42.561Z,60.89
2023-03-17T06:07:53.132Z,60.94
2023-03-17T06:08:43.559Z,60.98
2023-03-17T06:09:42.512Z,61.00
2023-03-17T06:10:42.513Z,61.05
2023-03-17T06:11:42.524Z,61.06
2023-03-17T06:12:42.483Z,61.02
2023-03-17T06:13:42.500Z,60.89
2023-03-17T06:14:42.477Z,60.81
2023-03-17T06:15:42.602Z,60.84
2023-03-17T06:16:42.475Z,60.70
2023-03-17T06:17:42.398Z,60.15
2023-03-17T06:18:42.417Z,59.56
2023-03-17T06:19:42.446Z,58.88
2023-03-17T06:20:42.388Z,58.42
2023-03-17T06:21:42.377Z,58.07
2023-03-17T06:22:55.140Z,58.25
2023-03-17T06:23:43.532Z,58.25
2023-03-17T06:24:42.348Z,57.96
2023-03-17T06:25:42.338Z,57.79
2023-03-17T06:26:42.326Z,57.82
2023-03-17T06:27:42.345Z,57.61
2023-03-17T06:28:42.299Z,57.30
2023-03-17T06:29:42.346Z,57.16
2023-03-17T06:30:42.293Z,57.09
2023-03-17T06:31:42.313Z,57.10
2023-03-17T06:32:42.324Z,57.15
2023-03-17T06:33:42.337Z,57.18
2023-03-17T06:34:42.253Z,57.25
2023-03-17T06:35:42.277Z,57.08
2023-03-17T06:36:42.206Z,57.18
2023-03-17T06:37:42.242Z,57.32
2023-03-17T06:38:43.290Z,57.38
2023-03-17T06:39:42.250Z,57.32
2023-03-17T06:40:42.201Z,56.94
2023-03-17T06:41:42.235Z,56.77
2023-03-17T06:42:42.151Z,56.56
2023-03-17T06:43:42.126Z,56.46
2023-03-17T06:44:42.136Z,56.33
2023-03-17T06:45:42.156Z,56.26
2023-03-17T06:46:42.117Z,55.99
2023-03-17T06:47:42.109Z,55.86
2023-03-17T06:48:42.076Z,55.82
2023-03-17T06:49:42.075Z,55.81
2023-03-17T06:50:42.064Z,55.68
2023-03-17T06:51:42.100Z,55.71
2023-03-17T06:52:42.053Z,55.75
2023-03-17T06:53:42.008Z,55.73
2023-03-17T06:54:42.011Z,55.77
2023-03-17T06:55:42.018Z,55.84
2023-03-17T06:56:42.009Z,55.83
2023-03-17T06:57:41.969Z,56.14
2023-03-17T06:58:41.965Z,56.40
2023-03-17T06:59:41.955Z,56.60
2023-03-17T07:00:42.083Z,56.88
2023-03-17T07:01:42.015Z,57.19
2023-03-17T07:02:41.952Z,57.45
2023-03-17T07:03:41.940Z,57.62
2023-03-17T07:04:41.926Z,57.74
2023-03-17T07:05:41.903Z,57.93
2023-03-17T07:06:41.897Z,57.82
2023-03-17T07:07:41.874Z,57.76
2023-03-17T07:08:41.863Z,57.80
2023-03-17T07:09:41.888Z,57.97
2023-03-17T07:10:41.808Z,58.18
2023-03-17T07:11:41.816Z,58.24
2023-03-17T07:12:41.817Z,58.30
2023-03-17T07:13:41.822Z,58.37
2023-03-17T07:14:41.927Z,58.44
2023-03-17T07:15:41.753Z,58.53
2023-03-17T07:16:41.797Z,58.62
2023-03-17T07:17:41.771Z,58.71
2023-03-17T07:18:41.741Z,58.82
2023-03-17T07:19:41.763Z,58.91
2023-03-17T07:20:41.710Z,58.92
2023-03-17T07:21:41.702Z,58.91
2023-03-17T07:22:41.704Z,58.94
2023-03-17T07:23:41.662Z,58.98
2023-03-17T07:24:41.694Z,59.02
2023-03-17T07:25:41.673Z,59.14
2023-03-17T07:26:41.646Z,59.16
2023-03-17T07:27:41.671Z,59.19
2023-03-17T07:28:41.677Z,59.18
2023-03-17T07:29:41.609Z,59.23
2023-03-17T07:30:41.635Z,59.23
2023-03-17T07:31:41.646Z,59.22
2023-03-17T07:32:41.659Z,59.23
2023-03-17T07:33:41.566Z,59.20
2023-03-17T07:34:41.577Z,58.94
2023-03-17T07:35:41.581Z,58.86
2023-03-17T07:36:41.571Z,58.91
2023-03-17T07:37:41.520Z,58.93
2023-03-17T07:38:41.654Z,58.88
2023-03-17T07:39:41.498Z,58.75
2023-03-17T07:40:41.519Z,58.65
2023-03-17T07:41:41.486Z,58.61
2023-03-17T07:42:41.469Z,58.63
2023-03-17T07:43:41.473Z,58.60
2023-03-17T07:44:41.695Z,58.53
2023-03-17T07:45:41.603Z,58.45
2023-03-17T07:46:41.456Z,58.37
2023-03-17T07:47:41.472Z,58.31
2023-03-17T07:48:41.479Z,58.28
2023-03-17T07:49:42.413Z,58.17
2023-03-17T07:50:41.461Z,58.16
2023-03-17T07:51:41.391Z,58.19
2023-03-17T07:52:41.390Z,58.07
2023-03-17T07:53:41.412Z,57.95
2023-03-17T07:54:43.028Z,57.66
2023-03-17T07:55:41.364Z,57.38
2023-03-17T07:56:41.376Z,56.86
2023-03-17T07:57:41.402Z,56.26
2023-03-17T07:58:41.307Z,56.30
2023-03-17T07:59:41.284Z,56.30
2023-03-17T08:00:41.261Z,56.12
2023-03-17T08:01:41.329Z,56.11
2023-03-17T08:02:41.293Z,56.06
2023-03-17T08:03:41.825Z,55.95
2023-03-17T08:04:41.220Z,55.86
2023-03-17T08:05:41.260Z,55.75
2023-03-17T08:06:41.215Z,55.64
2023-03-17T08:07:41.205Z,55.66
2023-03-17T08:08:41.198Z,55.61
2023-03-17T08:09:41.195Z,55.53
2023-03-17T08:10:41.219Z,55.55
2023-03-17T08:11:41.149Z,55.00
2023-03-17T08:12:41.127Z,55.12
2023-03-17T08:13:41.119Z,54.83
2023-03-17T08:14:41.127Z,54.85
2023-03-17T08:15:41.106Z,54.92
2023-03-17T08:16:41.121Z,54.90
2023-03-17T08:17:41.117Z,54.90
2023-03-17T08:18:41.103Z,54.38
2023-03-17T08:19:41.087Z,54.25
2023-03-17T08:20:41.071Z,54.06
2023-03-17T08:21:41.030Z,53.64
2023-03-17T08:22:41.028Z,53.72
2023-03-17T08:23:41.025Z,53.53
2023-03-17T08:24:41.065Z,53.55
2023-03-17T08:25:41.010Z,53.20
2023-03-17T08:26:41.035Z,53.25
2023-03-17T08:27:40.964Z,53.04
2023-03-17T08:28:41.043Z,52.76
2023-03-17T08:29:40.970Z,52.39
2023-03-17T08:30:41.421Z,52.36
2023-03-17T08:31:40.982Z,52.21
2023-03-17T08:32:41.022Z,52.04
2023-03-17T08:33:40.921Z,52.18
2023-03-17T08:34:40.923Z,52.25
2023-03-17T08:35:40.902Z,52.39
2023-03-17T08:36:40.901Z,52.24
2023-03-17T08:37:40.868Z,52.34
2023-03-17T08:38:40.863Z,52.24
2023-03-17T08:39:40.852Z,51.86
2023-03-17T08:40:40.830Z,51.70
2023-03-17T08:41:40.842Z,51.41
2023-03-17T08:42:40.820Z,51.35
2023-03-17T08:43:40.823Z,51.45
2023-03-17T08:44:43.544Z,51.29
2023-03-17T08:45:40.994Z,51.30
2023-03-17T08:46:40.761Z,51.53
2023-03-17T08:47:40.762Z,51.68
2023-03-17T08:48:40.757Z,51.87
2023-03-17T08:49:40.759Z,52.02
2023-03-17T08:50:40.727Z,52.22
2023-03-17T08:51:40.707Z,52.36
2023-03-17T08:52:40.689Z,52.39
2023-03-17T08:53:40.790Z,52.56
2023-03-17T08:54:40.680Z,52.62
2023-03-17T08:55:40.715Z,52.24
2023-03-17T08:56:40.665Z,52.17
2023-03-17T08:57:40.637Z,52.13
2023-03-17T08:58:40.662Z,52.02
2023-03-17T08:59:40.634Z,51.98
2023-03-17T09:00:40.615Z,52.09
2023-03-17T09:01:40.710Z,52.28
2023-03-17T09:02:40.665Z,52.43
2023-03-17T09:03:40.600Z,52.53
2023-03-17T09:04:40.568Z,52.54
2023-03-17T09:05:40.587Z,52.47
2023-03-17T09:06:48.894Z,52.14
2023-03-17T09:07:41.607Z,52.28
2023-03-17T09:08:40.539Z,52.30
2023-03-17T09:09:40.512Z,52.45
2023-03-17T09:10:42.514Z,52.54
2023-03-17T09:11:40.515Z,52.69
2023-03-17T09:12:40.487Z,52.69
2023-03-17T09:13:40.476Z,52.50
2023-03-17T09:14:44.117Z,52.30
2023-03-17T09:15:40.477Z,52.10
2023-03-17T09:16:40.464Z,51.78
2023-03-17T09:17:40.446Z,51.53
2023-03-17T09:18:40.436Z,51.08
2023-03-17T09:19:40.560Z,50.67
2023-03-17T09:20:40.388Z,50.95
2023-03-17T09:21:40.406Z,51.17
2023-03-17T09:22:40.385Z,51.34
2023-03-17T09:23:40.402Z,51.36
2023-03-17T09:24:40.357Z,51.30
2023-03-17T09:25:40.348Z,51.04
2023-03-17T09:26:40.388Z,50.76
2023-03-17T09:27:40.329Z,50.77
2023-03-17T09:28:40.322Z,50.86
2023-03-17T09:29:40.351Z,50.62
2023-03-17T09:30:40.302Z,50.84
2023-03-17T09:31:40.366Z,50.90
2023-03-17T09:32:40.305Z,50.85
2023-03-17T09:33:40.379Z,51.08
2023-03-17T09:34:40.258Z,51.29
2023-03-17T09:35:40.377Z,51.49
2023-03-17T09:36:40.226Z,51.48
2023-03-17T09:37:40.205Z,51.66
2023-03-17T09:38:40.231Z,49.84
2023-03-17T09:39:40.202Z,49.88
2023-03-17T09:40:40.179Z,50.67
2023-03-17T09:41:40.166Z,50.97
2023-03-17T09:42:40.165Z,51.21
2023-03-17T09:43:40.164Z,50.68
2023-03-17T09:44:40.148Z,50.46
2023-03-17T09:45:42.970Z,50.58
2023-03-17T09:46:40.207Z,50.79
2023-03-17T09:47:42.277Z,50.61
2023-03-17T09:48:40.108Z,49.57
2023-03-17T09:49:40.086Z,49.98
2023-03-17T09:50:40.078Z,50.08
2023-03-17T09:51:40.148Z,50.01
2023-03-17T09:52:40.054Z,50.12
2023-03-17T09:53:40.065Z,49.53
2023-03-17T09:54:40.044Z,49.35
2023-03-17T09:55:40.038Z,48.62
2023-03-17T09:56:40.025Z,48.90
2023-03-17T09:57:40.010Z,48.69
2023-03-17T09:58:40.002Z,48.64
2023-03-17T09:59:40.000Z,48.54
2023-03-17T10:00:40.006Z,48.59
2023-03-17T10:01:40.079Z,48.57
2023-03-17T10:02:40.000Z,48.44
2023-03-17T10:03:39.943Z,48.42
2023-03-17T10:04:39.938Z,48.21
2023-03-17T10:05:39.973Z,47.90
2023-03-17T10:06:39.917Z,47.71
2023-03-17T10:07:39.896Z,47.38
2023-03-17T10:08:39.883Z,46.47
2023-03-17T10:09:39.905Z,46.64
2023-03-17T10:10:39.867Z,46.97
2023-03-17T10:11:39.896Z,46.84
2023-03-17T10:12:39.829Z,46.59
2023-03-17T10:13:39.833Z,46.27
2023-03-17T10:14:39.803Z,46.32
2023-03-17T10:15:39.833Z,46.58
2023-03-17T10:16:39.979Z,46.55
2023-03-17T10:17:39.782Z,46.36
2023-03-17T10:18:39.762Z,46.17
2023-03-17T10:19:39.764Z,46.19
2023-03-17T10:20:39.750Z,46.12
2023-03-17T10:21:39.771Z,46.15
2023-03-17T10:22:39.760Z,45.74
2023-03-17T10:23:39.717Z,45.67
2023-03-17T10:24:39.719Z,46.07
2023-03-17T10:25:39.715Z,46.24
2023-03-17T10:26:39.725Z,46.08
2023-03-17T10:27:39.697Z,46.14
2023-03-17T10:28:39.671Z,46.28
2023-03-17T10:29:39.650Z,46.30
2023-03-17T10:30:39.648Z,45.80
2023-03-17T10:31:39.737Z,45.89
2023-03-17T10:32:39.690Z,45.97
2023-03-17T10:33:39.636Z,46.00
2023-03-17T10:34:39.610Z,45.98
2023-03-17T10:35:39.745Z,45.85
2023-03-17T10:36:39.576Z,45.78
2023-03-17T10:37:40.561Z,45.50
2023-03-17T10:38:39.550Z,45.47
2023-03-17T10:39:39.534Z,45.49
2023-03-17T10:40:39.527Z,45.46
2023-03-17T10:41:39.510Z,45.26
2023-03-17T10:42:39.540Z,45.07
2023-03-17T10:43:39.491Z,45.04
2023-03-17T10:44:39.498Z,44.90
2023-03-17T10:45:42.215Z,44.89
2023-03-17T10:46:39.483Z,44.81
2023-03-17T10:47:39.473Z,44.82
2023-03-17T10:48:39.476Z,44.97
2023-03-17T10:49:39.451Z,45.06
2023-03-17T10:50:39.423Z,45.06
2023-03-17T10:51:39.445Z,45.32
2023-03-17T10:52:39.408Z,45.41
2023-03-17T10:53:39.385Z,45.34
2023-03-17T10:54:39.385Z,44.90
2023-03-17T10:55:39.376Z,44.46
2023-03-17T10:56:39.363Z,44.20
2023-03-17T10:57:39.371Z,43.93
2023-03-17T10:58:39.330Z,43.75
2023-03-17T10:59:41.106Z,43.49
2023-03-17T11:00:39.353Z,43.72
2023-03-17T11:01:39.302Z,43.57
2023-03-17T11:02:39.356Z,44.00
2023-03-17T11:03:39.287Z,43.66
2023-03-17T11:04:39.288Z,43.74
2023-03-17T11:05:40.122Z,43.63
2023-03-17T11:06:39.283Z,43.69
2023-03-17T11:07:39.275Z,43.69
2023-03-17T11:08:39.249Z,43.58
2023-03-17T11:09:39.252Z,43.63
2023-03-17T11:10:39.226Z,43.48
2023-03-17T11:11:39.208Z,43.51
2023-03-17T11:12:39.204Z,43.52
2023-03-17T11:13:39.183Z,43.36
2023-03-17T11:14:39.185Z,43.41
2023-03-17T11:15:39.151Z,43.38
2023-03-17T11:16:39.337Z,43.44
2023-03-17T11:17:39.175Z,43.28
2023-03-17T11:18:39.162Z,42.52
2023-03-17T11:19:39.161Z,42.43
2023-03-17T11:20:39.158Z,42.52
2023-03-17T11:21:39.103Z,42.52
2023-03-17T11:22:39.132Z,42.35
2023-03-17T11:23:39.092Z,42.34
2023-03-17T11:24:39.077Z,42.68
2023-03-17T11:25:39.059Z,42.46
2023-03-17T11:26:39.058Z,42.74
2023-03-17T11:27:39.026Z,42.56
2023-03-17T11:28:39.023Z,42.35
2023-03-17T11:29:39.019Z,42.22
2023-03-17T11:30:39.008Z,42.27
2023-03-17T11:31:39.029Z,42.34
2023-03-17T11:32:39.023Z,42.39
2023-03-17T11:33:38.990Z,42.56
2023-03-17T11:34:38.963Z,42.75
2023-03-17T11:35:39.008Z,42.60
2023-03-17T11:36:38.934Z,42.41
2023-03-17T11:37:38.931Z,42.49
2023-03-17T11:38:38.928Z,42.48
2023-03-17T11:39:38.909Z,42.71
2023-03-17T11:40:38.910Z,42.70
2023-03-17T11:41:38.898Z,43.71
2023-03-17T11:42:38.928Z,43.15
2023-03-17T11:43:38.902Z,43.12
2023-03-17T11:44:38.931Z,43.01
2023-03-17T11:45:38.944Z,43.30
2023-03-17T11:46:38.872Z,43.02
2023-03-17T11:47:38.886Z,42.85
2023-03-17T11:48:38.888Z,42.79
2023-03-17T11:49:38.899Z,42.72
2023-03-17T11:50:38.807Z,42.78
2023-03-17T11:51:39.091Z,42.64
2023-03-17T11:52:38.842Z,42.60
2023-03-17T11:53:38.818Z,42.68
2023-03-17T11:54:38.828Z,42.70
2023-03-17T11:55:38.770Z,42.71
2023-03-17T11:56:38.814Z,42.97
2023-03-17T11:57:38.742Z,43.21
2023-03-17T11:58:38.847Z,43.24
2023-03-17T11:59:38.762Z,43.17
2023-03-17T12:00:38.757Z,43.18
2023-03-17T12:01:38.698Z,43.11
2023-03-17T12:02:38.855Z,43.18
2023-03-17T12:03:38.783Z,43.10
2023-03-17T12:04:38.776Z,43.10
2023-03-17T12:05:38.662Z,43.16
2023-03-17T12:06:38.643Z,43.13
2023-03-17T12:07:38.628Z,43.19
2023-03-17T12:08:38.612Z,43.47
2023-03-17T12:09:38.641Z,43.45
2023-03-17T12:10:38.612Z,43.50
2023-03-17T12:11:38.613Z,43.43
2023-03-17T12:12:38.622Z,43.45
2023-03-17T12:13:38.552Z,43.51
2023-03-17T12:14:38.559Z,43.72
2023-03-17T12:15:38.752Z,43.71
2023-03-17T12:16:38.544Z,43.75
2023-03-17T12:17:38.543Z,43.97
2023-03-17T12:18:38.514Z,44.05
2023-03-17T12:19:38.532Z,43.93
2023-03-17T12:20:38.498Z,44.04
2023-03-17T12:21:38.472Z,44.25
2023-03-17T12:22:38.516Z,44.35
2023-03-17T12:23:38.470Z,44.36
2023-03-17T12:24:38.496Z,44.34
2023-03-17T12:25:38.429Z,44.48
2023-03-17T12:26:38.445Z,44.49
2023-03-17T12:27:38.445Z,44.75
2023-03-17T12:28:38.510Z,44.67
2023-03-17T12:29:38.417Z,44.62
2023-03-17T12:30:38.396Z,44.62
2023-03-17T12:31:38.398Z,44.64
2023-03-17T12:32:38.443Z,44.69
2023-03-17T12:33:38.398Z,44.83
2023-03-17T12:34:38.357Z,45.04
2023-03-17T12:35:38.347Z,44.84
2023-03-17T12:36:38.346Z,44.75
2023-03-17T12:37:38.308Z,44.83
2023-03-17T12:38:38.315Z,44.91
2023-03-17T12:39:38.315Z,44.82
2023-03-17T12:40:38.318Z,44.84
2023-03-17T12:41:38.280Z,44.86
2023-03-17T12:42:38.281Z,44.77
2023-03-17T12:43:38.245Z,44.76
2023-03-17T12:44:38.234Z,44.76
2023-03-17T12:45:38.250Z,44.79
2023-03-17T12:46:38.315Z,44.57
2023-03-17T12:47:38.240Z,44.44
2023-03-17T12:48:38.215Z,44.31
2023-03-17T12:49:38.168Z,44.23
2023-03-17T12:50:38.184Z,44.26
2023-03-17T12:51:38.717Z,44.12
2023-03-17T12:52:38.171Z,44.21
2023-03-17T12:53:38.184Z,44.26
2023-03-17T12:54:38.139Z,44.20
2023-03-17T12:55:38.107Z,44.29
2023-03-17T12:56:38.356Z,44.35
2023-03-17T12:57:38.157Z,44.34
2023-03-17T12:58:38.100Z,44.32
2023-03-17T12:59:38.081Z,44.36
2023-03-17T13:00:38.164Z,44.49
2023-03-17T13:01:38.146Z,44.56
2023-03-17T13:02:38.278Z,44.51
2023-03-17T13:03:38.303Z,44.43
2023-03-17T13:04:38.010Z,44.50
2023-03-17T13:05:38.073Z,44.54
2023-03-17T13:06:37.985Z,44.49
2023-03-17T13:07:37.982Z,44.50
2023-03-17T13:08:37.951Z,44.50
2023-03-17T13:09:37.958Z,44.43
2023-03-17T13:10:37.980Z,44.33
2023-03-17T13:11:37.905Z,44.43
2023-03-17T13:12:38.018Z,44.47
2023-03-17T13:13:38.035Z,44.50
2023-03-17T13:14:37.936Z,44.64
2023-03-17T13:15:37.904Z,44.82
2023-03-17T13:16:38.054Z,44.96
2023-03-17T13:17:37.875Z,44.92
2023-03-17T13:18:37.976Z,44.98
2023-03-17T13:19:37.841Z,45.02
2023-03-17T13:20:37.807Z,45.08
2023-03-17T13:21:37.831Z,45.29
2023-03-17T13:22:37.781Z,45.19
2023-03-17T13:23:37.781Z,45.28
2023-03-17T13:24:37.754Z,45.22
2023-03-17T13:25:37.753Z,45.33
2023-03-17T13:26:37.744Z,45.38
2023-03-17T13:27:37.754Z,45.51
2023-03-17T13:28:58.723Z,45.41
2023-03-17T13:29:37.709Z,45.39
2023-03-17T13:30:37.758Z,45.43
2023-03-17T13:31:37.843Z,45.47
2023-03-17T13:32:37.716Z,45.32
2023-03-17T13:33:37.667Z,45.28
2023-03-17T13:34:37.648Z,45.47
2023-03-17T13:35:37.697Z,45.26
2023-03-17T13:36:37.633Z,45.25
2023-03-17T13:37:37.640Z,45.25
2023-03-17T13:38:37.627Z,45.30
2023-03-17T13:39:37.600Z,45.31
2023-03-17T13:40:37.593Z,45.27
2023-03-17T13:41:37.587Z,45.39
2023-03-17T13:42:37.630Z,45.35
2023-03-17T13:43:37.557Z,45.35
2023-03-17T13:44:37.590Z,45.47
2023-03-17T13:45:37.556Z,45.27
2023-03-17T13:46:37.610Z,45.43
2023-03-17T13:47:37.533Z,45.42
2023-03-17T13:48:37.584Z,45.41
2023-03-17T13:49:37.514Z,45.32
2023-03-17T13:50:37.482Z,45.39
2023-03-17T13:51:37.686Z,45.47
2023-03-17T13:52:37.508Z,45.55
2023-03-17T13:53:37.463Z,45.55
2023-03-17T13:54:37.448Z,45.71
2023-03-17T13:55:37.493Z,45.78
2023-03-17T13:56:37.499Z,45.62
2023-03-17T13:57:37.485Z,45.59
2023-03-17T13:58:37.414Z,45.85
2023-03-17T13:59:37.405Z,46.23
2023-03-17T14:00:37.413Z,46.20
2023-03-17T14:01:37.372Z,46.07
2023-03-17T14:02:37.421Z,46.06
2023-03-17T14:03:37.538Z,46.06
2023-03-17T14:04:37.345Z,46.07
2023-03-17T14:05:37.378Z,46.11
2023-03-17T14:06:37.446Z,46.01
2023-03-17T14:07:37.425Z,46.06
2023-03-17T14:08:37.382Z,46.17
2023-03-17T14:09:37.417Z,46.39
2023-03-17T14:10:37.832Z,46.45
2023-03-17T14:11:37.367Z,46.79
2023-03-17T14:12:37.363Z,46.71
2023-03-17T14:13:37.278Z,46.55